Flight Track Log - Related Links

Times and Time Zones

All times are in EDT time to prevent confusion due to time zone crossing. See the AAY846 flight status page for this flight to view local times or setup timezone preferences in your user account.

Time Position Orientation Groundspeed Altitude Reporting Facility
EDT Latitude Longitude Course Direction KTS MPH feet Rate Location/Type
Sun 08:47:27 AM 27.9333 -82.7000 23° Northeast 133 153 1,100  Level Tampa TRACON
Sun 08:49:18 AM 28.0017 -82.6669 23° Northeast 170 196 3,800 1,649 Climbing Jacksonville Center
Sun 08:50:18 AM 28.0706 -82.6761 353° North 203 234 5,800 2,600 Climbing Jacksonville Center
Sun 08:51:18 AM 28.1436 -82.6783 358° North 237 273 9,000 2,550 Climbing Jacksonville Center
Sun 08:52:18 AM 28.2228 -82.6781 360° North 266 306 10,900 1,550 Climbing Jacksonville Center
Sun 08:53:18 AM 28.3167 -82.6969 350° North 302 348 12,100 1,000 Climbing Jacksonville Center
Sun 08:54:18 AM 28.4189 -82.7178 350° North 341 392 12,900 950 Climbing Jacksonville Center
Sun 08:55:18 AM 28.5214 -82.7389 350° North 363 418 14,000 1,650 Climbing Jacksonville Center
Sun 08:56:18 AM 28.6256 -82.7625 349° North 374 430 16,200 2,100 Climbing Jacksonville Center
Sun 08:57:18 AM 28.7447 -82.7956 346° North 384 442 18,200 1,900 Climbing Jacksonville Center
Sun 08:58:18 AM 28.8386 -82.8736 324° Northwest 399 459 20,000 1,686 Climbing Jacksonville Center
Sun 08:59:19 AM 28.9347 -82.9567 323° Northwest 411 473 21,600 1,450 Climbing Jacksonville Center
Sun 09:00:18 AM 29.0328 -83.0397 323° Northwest 433 498 22,900 1,109 Climbing Jacksonville Center
Sun 09:01:18 AM 29.1264 -83.1231 322° Northwest 433 498 23,800 550 Climbing Jacksonville Center
Sun 09:02:18 AM 29.2222 -83.2042 324° Northwest 438 504 24,000 450 Climbing Jacksonville Center
Sun 09:03:18 AM 29.3222 -83.2831 325° Northwest 438 504 24,700 1,200 Climbing Jacksonville Center
Sun 09:04:18 AM 29.4244 -83.3528 329° Northwest 433 498 26,400 1,550 Climbing Jacksonville Center
Sun 09:05:18 AM 29.5283 -83.4225 330° Northwest 428 493 27,800 1,550 Climbing Jacksonville Center
Sun 09:06:18 AM 29.6283 -83.4875 331° Northwest 428 493 29,500 1,500 Climbing Jacksonville Center
Sun 09:07:18 AM 29.7344 -83.5503 333° Northwest 417 480 30,800 1,250 Climbing Jacksonville Center
Sun 09:08:18 AM 29.8364 -83.6086 334° Northwest 412 474 32,000 600 Climbing Jacksonville Center
Sun 09:09:18 AM 29.9261 -83.6594 334° Northwest 406 467 32,000 -50 Level Jacksonville Center
Sun 09:10:18 AM 30.0281 -83.7156 335° Northwest 406 467 31,900  Descending Jacksonville Center
Sun 09:11:18 AM 30.1297 -83.7739 334° Northwest 406 467 32,000 50 Climbing Jacksonville Center
Sun 09:12:18 AM 30.2339 -83.8328 334° Northwest 406 467 32,000  Level Jacksonville Center
Sun 09:13:18 AM 30.3336 -83.8914 333° Northwest 406 467 32,000  Level Jacksonville Center
Sun 09:14:18 AM 30.4375 -83.9503 334° Northwest 406 467 32,000 -50 Level Jacksonville Center
Sun 09:15:19 AM 30.5394 -84.0094 333° Northwest 406 467 31,900  Descending Jacksonville Center
Sun 09:16:18 AM 30.6389 -84.0733 331° Northwest 401 461 32,000 50 Climbing Jacksonville Center
Sun 09:17:18 AM 30.7428 -84.1375 332° Northwest 406 467 32,000  Level Jacksonville Center
Sun 09:18:18 AM 30.8467 -84.1944 335° Northwest 406 467 32,000  Level Jacksonville Center
Sun 09:19:18 AM 30.9483 -84.2564 332° Northwest 406 467 32,000  Level Jacksonville Center
Sun 09:20:18 AM 31.0519 -84.3183 333° Northwest 406 467 32,000  Level Jacksonville Center
Sun 09:21:18 AM 31.1556 -84.3783 334° Northwest 406 467 32,000  Level Jacksonville Center
Sun 09:23:04 AM 31.3367 -84.4861 333° Northwest 417 480 32,000  Level Atlanta Center
Sun 09:24:04 AM 31.4408 -84.5475 333° Northwest 417 480 32,000  Level Atlanta Center
Sun 09:25:04 AM 31.5428 -84.6114 332° Northwest 412 474 32,000  Level Atlanta Center
Sun 09:26:04 AM 31.6531 -84.6756 334° Northwest 412 474 32,000  Level Atlanta Center
Sun 09:27:04 AM 31.7572 -84.7375 333° Northwest 412 474 32,000  Level Atlanta Center
Sun 09:28:04 AM 31.8592 -84.8017 332° Northwest 412 474 32,000  Level Atlanta Center
Sun 09:29:04 AM 31.9694 -84.8394 344° North 407 468 32,000  Level Atlanta Center
Sun 09:30:04 AM 32.0797 -84.8772 344° North 407 468 32,000  Level Atlanta Center
Sun 09:31:04 AM 32.1922 -84.9125 345° North 407 468 32,000  Level Atlanta Center
Sun 09:32:04 AM 32.3028 -84.9456 346° North 412 474 32,000  Level Atlanta Center
Sun 09:33:04 AM 32.4131 -84.9836 344° North 406 467 32,000  Level Atlanta Center
Sun 09:34:04 AM 32.5233 -85.0192 345° North 406 467 32,000  Level Atlanta Center
Sun 09:35:04 AM 32.6358 -85.0625 342° North 412 474 32,000  Level Atlanta Center
Sun 09:36:04 AM 32.7439 -85.0983 344° North 418 481 32,000  Level Atlanta Center
Sun 09:37:04 AM 32.8564 -85.1442 341° North 368 423 32,000  Level Atlanta Center
Sun 09:38:04 AM 32.9625 -85.1728 347° North 387 445 32,000  Level Atlanta Center
Sun 09:39:04 AM 33.0769 -85.2214 340° North 404 465 32,000  Level Atlanta Center
Sun 09:40:04 AM 33.1808 -85.2700 339° North 409 471 32,000  Level Atlanta Center
Sun 09:41:04 AM 33.2844 -85.3186 339° North 409 471 32,000  Level Atlanta Center
Sun 09:42:04 AM 33.3800 -85.3647 338° Northwest 409 471 32,000  Level Atlanta Center
Sun 09:43:04 AM 33.4861 -85.4111 340° North 409 471 32,000  Level Atlanta Center
Sun 09:44:04 AM 33.5919 -85.4628 338° Northwest 409 471 32,000  Level Atlanta Center
Sun 09:45:04 AM 33.6978 -85.5094 340° North 409 471 32,000  Level Atlanta Center
Sun 09:46:04 AM 33.8036 -85.5589 339° North 409 471 32,000  Level Atlanta Center
Sun 09:47:04 AM 33.9200 -85.6108 340° North 409 471 32,000  Level Atlanta Center
Sun 09:48:04 AM 34.0256 -85.6631 338° Northwest 404 465 32,000  Level Atlanta Center
Sun 09:49:04 AM 34.1336 -85.7103 340° North 409 471 32,000  Level Atlanta Center
Sun 09:50:04 AM 34.2372 -85.7625 337° Northwest 409 471 32,000  Level Atlanta Center
Sun 09:51:04 AM 34.3431 -85.8125 339° North 409 471 32,000  Level Atlanta Center
Sun 09:52:04 AM 34.4467 -85.8575 340° North 393 452 32,000  Level Atlanta Center
Sun 09:53:04 AM 34.5522 -85.9050 340° North 393 452 32,000  Level Atlanta Center
Sun 09:54:03 AM 34.6461 -85.9553 336° Northwest 405 466 32,000  Level Memphis Center
Sun 09:55:05 AM 34.7528 -86.0064 339° North 407 468 32,000  Level Memphis Center
Sun 09:56:07 AM 34.8722 -86.0642 338° Northwest 408 470 32,000  Level Memphis Center
Sun 09:57:09 AM 34.9806 -86.1175 338° Northwest 413 475 32,000  Level Memphis Center
Sun 09:58:11 AM 35.0881 -86.1689 339° North 413 475 32,000  Level Memphis Center
Sun 09:59:13 AM 35.1911 -86.2197 338° Northwest 414 476 32,000  Level Memphis Center
Sun 10:00:15 AM 35.3178 -86.2800 339° North 414 476 32,000  Level Memphis Center
Sun 10:01:17 AM 35.4247 -86.3347 337° Northwest 415 478 32,000  Level Memphis Center
Sun 10:02:19 AM 35.5328 -86.3861 339° North 414 476 32,000  Level Memphis Center
Sun 10:03:21 AM 35.6386 -86.4414 337° Northwest 413 475 32,000  Level Memphis Center
Sun 10:04:23 AM 35.7464 -86.4931 339° North 413 475 32,000  Level Memphis Center
Sun 10:05:25 AM 35.8550 -86.5450 339° North 413 475 32,000  Level Memphis Center
Sun 10:06:27 AM 35.9614 -86.5978 338° Northwest 412 474 32,000  Level Memphis Center
Sun 10:07:29 AM 36.0678 -86.6503 338° Northwest 411 473 32,000  Level Memphis Center
Sun 10:08:31 AM 36.1892 -86.7142 337° Northwest 409 471 32,000  Level Memphis Center
Sun 10:09:33 AM 36.2742 -86.7625 335° Northwest 407 468 32,000  Level Memphis Center
Sun 10:10:35 AM 36.4014 -86.8394 334° Northwest 407 468 32,000  Level Memphis Center
Sun 10:11:37 AM 36.4947 -86.8922 336° Northwest 408 470 32,000  Level Memphis Center
Sun 10:12:39 AM 36.6131 -86.9636 334° Northwest 406 467 32,000  Level Memphis Center
Sun 10:13:41 AM 36.7153 -87.0242 335° Northwest 405 466 32,000  Level Memphis Center
Sun 10:14:43 AM 36.8169 -87.0850 334° Northwest 405 466 32,000  Level Memphis Center
Sun 10:15:45 AM 36.9181 -87.1464 334° Northwest 404 465 32,000  Level Memphis Center
Sun 10:16:47 AM 37.0206 -87.2069 335° Northwest 403 464 32,000  Level Memphis Center
Sun 10:17:49 AM 37.1217 -87.2686 334° Northwest 403 464 32,000  Level Memphis Center
Sun 10:18:52 AM 37.2394 -87.3392 335° Northwest 399 459 32,000  Level Memphis Center
Sun 10:19:54 AM 37.3414 -87.3994 335° Northwest 399 459 32,000  Level Memphis Center
Sun 10:20:47 AM 37.4264 -87.4511 334° Northwest 400 460 32,000  Level Indianapolis Center
Sun 10:21:48 AM 37.5286 -87.5111 335° Northwest 400 460 32,000  Level Indianapolis Center
Sun 10:22:51 AM 37.6311 -87.5700 336° Northwest 400 460 32,000  Level Indianapolis Center
Sun 10:23:52 AM 37.7336 -87.6297 335° Northwest 400 460 32,000  Level Indianapolis Center
Sun 10:24:55 AM 37.8344 -87.6886 335° Northwest 400 460 32,000  Level Indianapolis Center
Sun 10:25:58 AM 37.9344 -87.7492 334° Northwest 399 459 32,000  Level Indianapolis Center
Sun 10:26:59 AM 38.0558 -87.8181 336° Northwest 398 458 32,000  Level Indianapolis Center
Sun 10:28:00 AM 38.1561 -87.8769 335° Northwest 396 456 32,000  Level Indianapolis Center
Sun 10:29:04 AM 38.2564 -87.9389 334° Northwest 396 456 32,000  Level Indianapolis Center
Sun 10:30:05 AM 38.3578 -88.0014 334° Northwest 397 457 32,000  Level Indianapolis Center
Sun 10:31:06 AM 38.4578 -88.0603 335° Northwest 398 458 32,000  Level Indianapolis Center
Sun 10:32:10 AM 38.5547 -88.1203 334° Northwest 389 448 32,000  Level Indianapolis Center
Sun 10:33:13 AM 38.6531 -88.1803 335° Northwest 389 448 32,000  Level Indianapolis Center
Sun 10:34:14 AM 38.7506 -88.2403 334° Northwest 388 447 32,000  Level Indianapolis Center
Sun 10:35:15 AM 38.8706 -88.3128 335° Northwest 391 450 32,000 -96 Level Indianapolis Center
Sun 10:36:19 AM 38.9681 -88.3739 334° Northwest 391 450 31,800 -576 Descending Indianapolis Center
Sun 10:37:20 AM 39.0647 -88.4333 334° Northwest 388 447 30,800 -960 Descending Indianapolis Center
Sun 10:38:24 AM 39.1628 -88.4950 334° Northwest 388 447 29,800 -864 Descending Indianapolis Center
Sun 10:39:25 AM 39.2628 -88.5556 335° Northwest 391 450 29,000 -393 Descending Indianapolis Center
Sun 10:40:26 AM 39.3714 -88.6236 334° Northwest 394 453 29,000  Level Kansas City Center
Sun 10:41:27 AM 39.4756 -88.6883 334° Northwest 396 456 29,000  Level Kansas City Center
Sun 10:42:31 AM 39.5744 -88.7486 335° Northwest 395 455 29,000 -290 Level Kansas City Center
Sun 10:43:31 AM 39.6728 -88.8122 334° Northwest 395 455 28,400 -1,636 Descending Kansas City Center
Sun 10:44:32 AM 39.7700 -88.8792 332° Northwest 396 456 25,700 -2,544 Descending Kansas City Center
Sun 10:45:36 AM 39.8525 -88.9561 324° Northwest 371 427 23,100 -2,592 Descending Kansas City Center
Sun 10:46:37 AM 39.9306 -89.0247 326° Northwest 349 402 20,300 -2,951 Descending Kansas City Center
Sun 10:47:38 AM 40.0214 -89.1061 326° Northwest 335 386 17,100 -3,264 Descending Kansas City Center
Sun 10:48:42 AM 40.0928 -89.1697 326° Northwest 317 365 13,500 -2,862 Descending Kansas City Center
Sun 10:49:48 AM 40.1650 -89.2356 325° Northwest 316 364 10,900 -2,016 Descending Chicago Center
Sun 10:50:50 AM 40.2408 -89.3033 326° Northwest 280 322 9,200 -1,805 Descending Chicago Center
Sun 10:51:51 AM 40.2961 -89.3556 324° Northwest 253 291 7,200 -1,902 Descending Chicago Center
Sun 10:52:53 AM 40.3533 -89.4075 325° Northwest 251 289 5,300 -1,645 Descending Chicago Center
Sun 10:53:55 AM 40.4117 -89.4608 325° Northwest 252 290 3,800 -1,210 Descending Chicago Center
Sun 10:54:57 AM 40.4683 -89.5122 325° Northwest 252 290 2,800 -683 Descending Chicago Center
Sun 10:55:58 AM 40.5247 -89.5611 327° Northwest 248 285 2,400 -195 Descending Chicago Center
Sun 10:57:00 AM 40.5789 -89.5992 332° Northwest 231 266 2,400 -339 Level Chicago Center
Sun 10:58:02 AM 40.6253 -89.6319 332° Northwest 178 205 1,700 -726 Descending Chicago Center
Sun 10:59:04 AM 40.6500 -89.6714 310° West 153 176 900 -532 Descending Chicago Center
Sun 11:00:06 AM 40.6711 -89.7092 306° West 148 170 600 -290 Descending Chicago Center

Login

Don't have an account? Register now (free) for customized features, flight alerts, and more!